Time;durP1;ratioP1;P1;durP2;ratioP2;P2;SDS_P1;SDS_P2;PMS_P1;PMS_P2;Temp;Humidity;BMP_temperature;BMP_pressure;BME280_temperature;BME280_humidity;BME280_pressure;Samples;Min_cycle;Max_cycle;Signal;HPM_P1;HPM_P2
2021/09/15 00:00:33;;;;;;;;;10.67;10.67;;;;;20.46;79.92;100580.38;5082027;28;45362;-81
2021/09/15 00:02:58;;;;;;;;;14.00;14.00;;;;;20.56;80.15;100588.63;5082121;28;45286;-81
2021/09/15 00:05:24;;;;;;;;;17.00;16.33;;;;;20.55;79.89;100579.72;5082181;28;45685;-81
2021/09/15 00:07:49;;;;;;;;;13.33;13.00;;;;;20.58;80.43;100581.13;5081824;28;45271;-80
2021/09/15 00:10:14;;;;;;;;;10.00;10.00;;;;;20.59;80.24;100582.75;5081644;27;45228;-81
2021/09/15 00:12:40;;;;;;;;;12.33;11.67;;;;;20.60;79.72;100588.97;5080275;28;45306;-80
2021/09/15 00:15:07;;;;;;;;;12.33;11.67;;;;;20.60;80.11;100580.88;5080703;28;45249;-81
2021/09/15 00:17:32;;;;;;;;;10.67;10.00;;;;;20.59;79.78;100580.03;5081723;28;45362;-81
2021/09/15 00:19:58;;;;;;;;;14.00;13.00;;;;;20.60;79.81;100586.28;5080216;28;46517;-81
2021/09/15 00:22:23;;;;;;;;;14.33;13.33;;;;;20.58;79.85;100582.97;5081509;28;45279;-81
2021/09/15 00:24:48;;;;;;;;;14.67;11.67;;;;;20.59;79.74;100584.66;5080508;28;45366;-80
2021/09/15 00:27:14;;;;;;;;;13.67;12.00;;;;;20.59;79.92;100584.66;5079732;28;45390;-81
2021/09/15 00:29:40;;;;;;;;;10.33;9.67;;;;;20.56;79.74;100581.34;5078288;28;45240;-80
2021/09/15 00:32:06;;;;;;;;;10.67;10.67;;;;;20.56;79.66;100575.97;5061143;28;45288;-81
2021/09/15 00:34:31;;;;;;;;;10.33;9.67;;;;;20.53;80.04;100581.84;5059952;28;45220;-80
2021/09/15 00:36:57;;;;;;;;;9.00;7.67;;;;;20.58;80.33;100574.88;5060704;28;45166;-81
2021/09/15 00:39:23;;;;;;;;;9.00;9.00;;;;;20.57;80.01;100574.09;5060856;28;45282;-81
2021/09/15 00:41:49;;;;;;;;;7.33;7.33;;;;;20.61;80.20;100574.41;5059673;28;45262;-80
2021/09/15 00:44:15;;;;;;;;;9.00;7.33;;;;;20.60;80.28;100562.81;5061093;28;45236;-80
2021/09/15 00:46:41;;;;;;;;;8.00;8.00;;;;;20.62;79.72;100563.34;5059483;28;47248;-80
2021/09/15 00:49:08;;;;;;;;;8.00;8.00;;;;;20.62;80.03;100552.56;5060960;28;45345;-81
2021/09/15 00:51:39;;;;;;;;;7.33;6.67;;;;;20.62;79.67;100557.16;5059340;28;45407;-80
2021/09/15 00:54:06;;;;;;;;;8.00;7.00;;;;;20.58;80.03;100542.50;5061002;28;45399;-81
2021/09/15 00:56:32;;;;;;;;;9.00;6.00;;;;;20.60;80.04;100554.69;5060607;28;45342;-81
2021/09/15 00:58:57;;;;;;;;;6.67;5.67;;;;;20.58;79.97;100548.72;5060659;28;45363;-80
2021/09/15 01:01:23;;;;;;;;;6.33;6.33;;;;;20.55;79.80;100560.84;5060456;28;45381;-81
2021/09/15 01:03:48;;;;;;;;;6.33;4.33;;;;;20.53;80.11;100543.25;5058766;28;45339;-81
2021/09/15 01:06:14;;;;;;;;;7.00;6.33;;;;;20.55;80.06;100546.50;5060619;28;45281;-80
2021/09/15 01:08:41;;;;;;;;;6.33;5.00;;;;;20.58;80.11;100548.72;5060562;28;46111;-80
2021/09/15 01:11:07;;;;;;;;;6.33;6.33;;;;;20.59;79.76;100550.34;5060489;28;45287;-80
2021/09/15 01:13:32;;;;;;;;;7.00;6.00;;;;;20.58;79.74;100537.09;5060566;28;45280;-80
2021/09/15 01:15:58;;;;;;;;;6.67;6.67;;;;;20.54;79.56;100545.72;5060407;28;45455;-81
2021/09/15 01:18:24;;;;;;;;;8.00;6.67;;;;;20.51;79.86;100548.06;5059014;28;46958;-81
2021/09/15 01:20:50;;;;;;;;;6.67;6.00;;;;;20.54;79.87;100545.72;5060444;28;45171;-80
2021/09/15 01:23:16;;;;;;;;;6.00;6.00;;;;;20.53;79.82;100535.97;5060481;28;45334;-80
2021/09/15 01:25:42;;;;;;;;;6.00;5.00;;;;;20.50;80.27;100532.94;5060424;28;45355;-80
2021/09/15 01:28:07;;;;;;;;;6.00;6.00;;;;;20.53;80.14;100533.25;5059877;28;45309;-79
2021/09/15 01:30:33;;;;;;;;;8.67;7.67;;;;;20.51;79.53;100526.47;5070647;28;45270;-80
2021/09/15 01:32:59;;;;;;;;;9.00;7.67;;;;;20.51;79.94;100530.00;5080855;28;45337;-80
2021/09/15 01:35:25;;;;;;;;;4.00;4.00;;;;;20.46;80.02;100529.91;5080341;28;45323;-80
2021/09/15 01:37:51;;;;;;;;;5.33;5.33;;;;;20.48;80.03;100541.28;5080343;28;46187;-81
2021/09/15 01:40:16;;;;;;;;;5.67;5.67;;;;;20.49;79.64;100539.38;5080520;28;45471;-81
2021/09/15 01:42:42;;;;;;;;;8.33;8.00;;;;;20.47;79.82;100533.44;5080435;28;45289;-81
2021/09/15 01:45:10;;;;;;;;;8.33;7.67;;;;;20.48;80.32;100533.19;5080343;28;45412;-81
2021/09/15 01:47:36;;;;;;;;;4.33;4.33;;;;;20.46;79.96;100527.22;5080317;27;45324;-80
2021/09/15 01:50:03;;;;;;;;;6.67;6.00;;;;;20.46;79.58;100532.63;5080185;28;45387;-81
2021/09/15 01:52:28;;;;;;;;;6.33;5.33;;;;;20.46;79.99;100537.19;5078869;28;45480;-81
2021/09/15 01:54:54;;;;;;;;;6.00;6.00;;;;;20.41;80.15;100524.44;5078772;28;45920;-81
2021/09/15 01:57:19;;;;;;;;;7.00;7.00;;;;;20.44;79.72;100537.44;5079979;28;45522;-80
2021/09/15 01:59:44;;;;;;;;;8.00;8.00;;;;;20.40;79.90;100531.72;5080153;28;45346;-81
2021/09/15 02:02:13;;;;;;;;;8.67;6.67;;;;;20.41;80.16;100537.94;5080324;27;45285;-81
2021/09/15 02:04:39;;;;;;;;;5.67;5.67;;;;;20.41;80.10;100536.03;5080034;28;45218;-81
2021/09/15 02:07:05;;;;;;;;;6.00;6.00;;;;;20.42;80.30;100539.56;5079910;28;46625;-81
2021/09/15 02:09:31;;;;;;;;;6.67;5.00;;;;;20.40;80.53;100539.81;5078803;28;45284;-81
2021/09/15 02:11:56;;;;;;;;;5.67;5.00;;;;;20.39;79.97;100537.38;5079805;28;45555;-81
2021/09/15 02:14:21;;;;;;;;;5.33;5.00;;;;;20.43;79.95;100541.19;5078291;28;46303;-81
2021/09/15 02:16:47;;;;;;;;;6.00;5.67;;;;;20.42;80.49;100547.66;5079902;28;46038;-81
2021/09/15 02:19:13;;;;;;;;;7.00;7.00;;;;;20.42;80.24;100550.38;5079781;28;45405;-82
2021/09/15 02:21:39;;;;;;;;;7.33;6.33;;;;;20.40;80.56;100549.78;5080747;28;45232;-81
2021/09/15 02:24:05;;;;;;;;;7.67;6.67;;;;;20.40;80.36;100549.78;5079811;28;45311;-82
2021/09/15 02:26:31;;;;;;;;;6.67;6.33;;;;;20.41;81.05;100546.03;5081637;28;47361;-82
2021/09/15 02:28:57;;;;;;;;;8.67;7.33;;;;;20.42;80.68;100536.88;5090696;27;45512;-82
2021/09/15 02:31:23;;;;;;;;;7.33;7.33;;;;;20.40;80.67;100530.91;5070718;28;45228;-82
2021/09/15 02:33:49;;;;;;;;;8.00;8.00;;;;;20.40;80.48;100536.28;5063077;28;45810;-85
2021/09/15 02:36:14;;;;;;;;;7.33;7.33;;;;;20.38;81.09;100533.03;5068328;28;48087;-83
2021/09/15 02:38:40;;;;;;;;;7.33;7.00;;;;;20.41;80.88;100532.56;5065813;28;45244;-83
2021/09/15 02:41:06;;;;;;;;;7.67;7.67;;;;;20.41;80.67;100532.56;5062802;28;45181;-82
2021/09/15 02:43:31;;;;;;;;;7.00;7.00;;;;;20.44;80.54;100540.97;5059048;28;45549;-82
2021/09/15 02:45:57;;;;;;;;;6.33;6.00;;;;;20.50;81.01;100555.34;5059928;28;45442;-82
2021/09/15 02:48:22;;;;;;;;;9.67;8.00;;;;;20.52;81.03;100557.81;5065173;28;45229;-81
2021/09/15 02:50:47;;;;;;;;;7.00;7.00;;;;;20.51;80.79;100556.16;5066474;28;45375;-82
2021/09/15 02:53:13;;;;;;;;;11.33;9.00;;;;;20.51;80.79;100554.31;5067405;28;45477;-81
2021/09/15 02:55:38;;;;;;;;;7.67;7.67;;;;;20.53;80.51;100559.47;5064666;28;46869;-81
2021/09/15 02:58:04;;;;;;;;;7.00;7.00;;;;;20.52;80.43;100549.69;5068259;28;45321;-81
2021/09/15 03:00:30;;;;;;;;;8.67;8.00;;;;;20.53;80.80;100554.84;5070289;28;45310;-81
2021/09/15 03:02:56;;;;;;;;;9.00;8.67;;;;;20.56;80.54;100554.38;5069077;28;45354;-80
2021/09/15 03:05:21;;;;;;;;;7.33;6.33;;;;;20.58;80.81;100554.13;5068287;28;47183;-81
2021/09/15 03:07:46;;;;;;;;;6.00;6.00;;;;;20.56;80.35;100548.97;5071899;28;45693;-80
2021/09/15 03:10:12;;;;;;;;;7.00;6.00;;;;;20.58;80.43;100545.19;5072985;28;45317;-81
2021/09/15 03:12:37;;;;;;;;;7.33;7.33;;;;;20.55;80.93;100549.22;5073737;28;45282;-81
2021/09/15 03:15:03;;;;;;;;;6.67;5.67;;;;;20.59;80.91;100550.34;5072846;28;46090;-80
2021/09/15 03:17:29;;;;;;;;;7.33;7.33;;;;;20.60;80.77;100545.78;5070745;28;45238;-80
2021/09/15 03:19:54;;;;;;;;;6.00;6.00;;;;;20.60;80.32;100553.88;5070068;28;45237;-80
2021/09/15 03:22:19;;;;;;;;;9.33;8.67;;;;;20.61;80.75;100545.53;5066146;28;45240;-80
2021/09/15 03:24:45;;;;;;;;;6.33;6.33;;;;;20.62;80.21;100546.34;5066534;28;45505;-80
2021/09/15 03:27:10;;;;;;;;;4.67;4.67;;;;;20.61;80.36;100542.84;5068251;28;45201;-80
2021/09/15 03:29:36;;;;;;;;;8.00;6.00;;;;;20.58;80.58;100539.78;5071370;28;45169;-80
2021/09/15 03:32:02;;;;;;;;;8.00;7.00;;;;;20.55;80.38;100539.25;5089180;28;45367;-80
2021/09/15 03:34:28;;;;;;;;;6.00;6.00;;;;;20.56;80.64;100546.25;5086360;28;48286;-80
2021/09/15 03:36:54;;;;;;;;;7.67;5.67;;;;;20.55;80.30;100541.13;5086867;28;45302;-79
2021/09/15 03:39:20;;;;;;;;;6.33;6.33;;;;;20.52;80.61;100545.13;5087345;28;45310;-80
2021/09/15 03:41:46;;;;;;;;;5.67;5.67;;;;;20.49;80.50;100540.22;5087932;28;45298;-80
2021/09/15 03:44:11;;;;;;;;;7.33;7.33;;;;;20.47;80.75;100546.94;5086725;28;45515;-79
2021/09/15 03:46:37;;;;;;;;;5.00;5.00;;;;;20.41;80.40;100543.34;5091662;27;45146;-80
2021/09/15 03:49:03;;;;;;;;;5.67;5.67;;;;;20.39;81.01;100548.16;5088727;28;45294;-80
2021/09/15 03:51:28;;;;;;;;;6.67;5.33;;;;;20.44;80.69;100556.31;5088881;28;45313;-80
2021/09/15 03:53:54;;;;;;;;;6.00;5.00;;;;;20.46;80.74;100554.19;5089702;28;45313;-79
2021/09/15 03:56:19;;;;;;;;;5.67;5.67;;;;;20.43;80.98;100554.69;5087050;28;45789;-80
2021/09/15 03:58:45;;;;;;;;;7.33;6.33;;;;;20.42;80.73;100553.88;5088024;28;45206;-80
2021/09/15 04:01:10;;;;;;;;;6.67;6.00;;;;;20.40;80.33;100553.31;5085763;28;45952;-80
2021/09/15 04:03:36;;;;;;;;;8.00;8.00;;;;;20.42;80.71;100556.56;5086420;28;47495;-80
2021/09/15 04:06:02;;;;;;;;;8.00;8.00;;;;;20.42;80.48;100555.75;5085754;28;45337;-80
2021/09/15 04:08:27;;;;;;;;;7.33;7.33;;;;;20.40;80.85;100544.38;5086661;28;45353;-80
2021/09/15 04:10:53;;;;;;;;;7.00;6.00;;;;;20.38;81.04;100554.63;5085872;27;45491;-80
2021/09/15 04:13:18;;;;;;;;;9.00;9.00;;;;;20.37;81.13;100550.28;5087098;28;46409;-80
2021/09/15 04:15:44;;;;;;;;;6.00;6.00;;;;;20.34;80.44;100545.34;5085004;28;45428;-80
2021/09/15 04:18:09;;;;;;;;;10.67;9.33;;;;;20.31;80.49;100547.50;5084748;28;45252;-80
2021/09/15 04:20:34;;;;;;;;;5.00;5.00;;;;;20.35;80.44;100568.59;5085631;28;45253;-80
2021/09/15 04:23:00;;;;;;;;;7.00;7.00;;;;;20.35;80.32;100580.19;5082927;28;47181;-81
2021/09/15 04:31:18;;;;;;;;;8.67;7.00;;;;;20.32;80.59;100567.19;5013669;28;45385;-80
2021/09/15 04:33:44;;;;;;;;;7.67;6.33;;;;;20.34;80.70;100558.84;5062326;28;46456;-80
2021/09/15 04:36:09;;;;;;;;;5.67;5.67;;;;;20.25;81.02;100548.47;5060706;28;45235;-80
2021/09/15 04:38:36;;;;;;;;;6.00;6.00;;;;;20.31;80.94;100558.31;5061758;28;45163;-80
2021/09/15 04:41:01;;;;;;;;;7.00;7.00;;;;;20.29;80.61;100560.41;5061104;28;46035;-80
2021/09/15 04:43:27;;;;;;;;;10.00;8.00;;;;;20.33;80.49;100566.16;5059629;28;46184;-80
2021/09/15 04:45:52;;;;;;;;;7.67;7.67;;;;;20.31;80.81;100566.41;5060838;28;45319;-80
2021/09/15 04:48:17;;;;;;;;;11.00;8.00;;;;;20.30;80.47;100550.44;5059936;28;45322;-80
2021/09/15 04:50:43;;;;;;;;;7.00;7.00;;;;;20.33;80.67;100554.53;5060803;28;45486;-80
2021/09/15 04:53:08;;;;;;;;;6.67;5.67;;;;;20.32;80.43;100545.59;5059209;28;48168;-80
2021/09/15 04:55:34;;;;;;;;;9.00;9.00;;;;;20.29;80.66;100556.88;5059485;28;45436;-81
2021/09/15 04:57:59;;;;;;;;;7.00;7.00;;;;;20.28;80.66;100561.47;5065078;28;45290;-80
2021/09/15 05:00:25;;;;;;;;;7.33;7.33;;;;;20.24;80.87;100560.34;5061524;28;45327;-80
2021/09/15 05:02:51;;;;;;;;;6.00;6.00;;;;;20.22;80.42;100567.84;5061137;28;46099;-80
2021/09/15 05:05:16;;;;;;;;;5.33;5.33;;;;;20.24;80.77;100563.03;5063675;28;45342;-80
2021/09/15 05:07:41;;;;;;;;;6.67;6.67;;;;;20.24;80.75;100562.22;5059220;28;45466;-81
2021/09/15 05:10:07;;;;;;;;;6.33;6.00;;;;;20.22;80.67;100567.03;5061155;28;45243;-82
2021/09/15 05:12:33;;;;;;;;;8.00;8.00;;;;;20.22;80.34;100567.84;5060344;28;46033;-81
2021/09/15 05:14:58;;;;;;;;;5.00;5.00;;;;;20.22;80.50;100562.44;5060920;28;45304;-81
2021/09/15 05:17:24;;;;;;;;;7.00;6.00;;;;;20.23;80.75;100557.88;5060679;28;45184;-81
2021/09/15 05:19:50;;;;;;;;;6.33;6.33;;;;;20.21;80.49;100560.81;5060090;28;46209;-81
2021/09/15 05:22:15;;;;;;;;;7.00;7.00;;;;;20.23;80.23;100558.69;5063030;28;45377;-81
2021/09/15 05:24:41;;;;;;;;;7.33;7.33;;;;;20.22;80.79;100559.75;5062095;28;45241;-80
2021/09/15 05:27:06;;;;;;;;;7.00;7.00;;;;;20.18;81.10;100564.81;5062710;28;45259;-80
2021/09/15 05:29:32;;;;;;;;;8.67;7.00;;;;;20.22;81.04;100562.44;5063180;28;45389;-80
2021/09/15 05:31:57;;;;;;;;;6.67;6.67;;;;;20.21;80.48;100568.09;5082122;27;45402;-80
2021/09/15 05:34:22;;;;;;;;;6.67;4.67;;;;;20.22;80.50;100570.53;5083411;28;45323;-81
2021/09/15 05:36:48;;;;;;;;;8.00;7.00;;;;;20.22;80.94;100575.13;5081888;28;45302;-81
2021/09/15 05:39:14;;;;;;;;;7.67;7.67;;;;;20.22;80.72;100581.34;5081758;28;46091;-81
2021/09/15 05:41:40;;;;;;;;;7.33;7.33;;;;;20.22;80.79;100581.34;5083758;28;46013;-80
2021/09/15 05:44:05;;;;;;;;;5.33;4.33;;;;;20.25;80.76;100586.25;5082917;28;45365;-81
2021/09/15 05:46:31;;;;;;;;;6.00;6.00;;;;;20.25;80.96;100588.13;5080885;28;45337;-80
2021/09/15 05:48:56;;;;;;;;;6.67;6.67;;;;;20.24;80.89;100579.22;5081370;28;45479;-80
2021/09/15 05:51:21;;;;;;;;;8.67;6.33;;;;;20.28;80.84;100595.72;5080981;28;46186;-78
2021/09/15 05:53:47;;;;;;;;;9.00;9.00;;;;;20.26;81.28;100585.19;5081372;28;45421;-80
2021/09/15 05:56:12;;;;;;;;;5.00;5.00;;;;;20.31;80.61;100600.66;5082869;28;45651;-79
2021/09/15 05:58:38;;;;;;;;;6.00;6.00;;;;;20.34;80.85;100597.47;5082077;28;45208;-78
2021/09/15 06:01:03;;;;;;;;;5.00;5.00;;;;;20.33;80.49;100598.53;5080475;28;45588;-80
2021/09/15 06:03:28;;;;;;;;;6.33;6.33;;;;;20.32;80.56;100599.56;5080006;28;45288;-79
2021/09/15 06:05:54;;;;;;;;;6.00;6.00;;;;;20.24;80.85;100591.88;5072535;28;45350;-79
2021/09/15 06:08:19;;;;;;;;;6.67;6.67;;;;;20.33;80.96;100603.94;5061138;28;45283;-80
2021/09/15 06:10:44;;;;;;;;;5.00;4.33;;;;;20.32;81.04;100602.28;5061127;28;45399;-80
2021/09/15 06:13:10;;;;;;;;;7.67;6.00;;;;;20.31;80.75;100608.75;5060039;28;45207;-83
2021/09/15 06:15:35;;;;;;;;;7.00;7.00;;;;;20.31;80.93;100606.88;5061265;28;45321;-80
2021/09/15 06:18:00;;;;;;;;;8.00;6.67;;;;;20.32;80.97;100613.06;5060802;28;45425;-81
2021/09/15 06:20:26;;;;;;;;;8.00;8.00;;;;;20.29;81.07;100611.69;5060980;28;46187;-82
2021/09/15 06:22:51;;;;;;;;;6.00;6.00;;;;;20.28;80.81;100607.34;5059669;28;45592;-82
2021/09/15 06:25:16;;;;;;;;;9.00;6.00;;;;;20.22;80.81;100605.63;5060333;28;45335;-82
2021/09/15 06:27:42;;;;;;;;;6.33;6.33;;;;;20.23;81.20;100603.75;5057641;28;45462;-82
2021/09/15 06:30:08;;;;;;;;;6.33;6.33;;;;;20.26;80.99;100617.56;5058877;28;45977;-82
2021/09/15 06:32:34;;;;;;;;;7.67;7.67;;;;;20.24;81.19;100614.31;5059907;28;45397;-81
2021/09/15 06:34:59;;;;;;;;;5.67;5.67;;;;;20.27;81.18;100621.09;5061367;28;45773;-81
2021/09/15 06:37:25;;;;;;;;;9.33;7.67;;;;;20.28;81.23;100618.16;5062206;28;45401;-82
2021/09/15 06:39:50;;;;;;;;;6.67;6.67;;;;;20.29;81.05;100619.78;5056706;28;46913;-82
2021/09/15 06:42:16;;;;;;;;;9.67;9.67;;;;;20.28;81.41;100612.75;5059033;28;45389;-81
2021/09/15 06:44:43;;;;;;;;;8.67;8.67;;;;;20.32;81.35;100621.16;5056840;28;45473;-79
2021/09/15 06:47:08;;;;;;;;;7.00;7.00;;;;;20.34;80.99;100620.91;5060011;28;45398;-81
2021/09/15 06:49:34;;;;;;;;;6.00;5.67;;;;;20.36;81.54;100618.81;5059650;28;45963;-80
2021/09/15 06:51:59;;;;;;;;;6.00;6.00;;;;;20.37;81.58;100626.66;5059441;28;45154;-78
2021/09/15 06:54:25;;;;;;;;;7.33;7.33;;;;;20.39;81.43;100626.41;5057953;28;45379;-78
2021/09/15 06:56:51;;;;;;;;;8.00;8.00;;;;;20.40;81.59;100625.34;5059301;28;45223;-78
2021/09/15 06:59:16;;;;;;;;;10.00;10.00;;;;;20.38;80.96;100620.19;5060728;28;46346;-78
2021/09/15 07:01:42;;;;;;;;;9.67;9.67;;;;;20.36;81.32;100614.25;5061947;28;45429;-79
2021/09/15 07:04:08;;;;;;;;;7.67;7.67;;;;;20.41;81.42;100618.91;5063815;28;45366;-80
2021/09/15 07:06:33;;;;;;;;;10.00;9.33;;;;;20.44;81.33;100627.31;5062453;28;46135;-80
2021/09/15 07:08:58;;;;;;;;;11.00;10.33;;;;;20.44;80.84;100624.63;5061935;28;47390;-80
2021/09/15 07:11:24;;;;;;;;;7.67;7.67;;;;;20.49;81.22;100623.06;5063359;28;45299;-80
2021/09/15 07:13:49;;;;;;;;;9.67;9.67;;;;;20.52;81.03;100623.41;5063338;28;45410;-79
2021/09/15 07:16:15;;;;;;;;;11.67;11.67;;;;;20.53;81.25;100619.63;5061149;28;47213;-78
2021/09/15 07:18:41;;;;;;;;;8.67;8.00;;;;;20.58;81.41;100634.28;5061267;28;47799;-78
2021/09/15 07:21:07;;;;;;;;;9.00;9.00;;;;;20.61;81.07;100631.91;5062128;28;45315;-78
2021/09/15 07:23:32;;;;;;;;;10.00;9.00;;;;;20.63;80.57;100634.38;5062199;28;45272;-76
2021/09/15 07:25:58;;;;;;;;;9.67;9.00;;;;;20.65;81.23;100637.66;5061991;28;45229;-78
2021/09/15 07:28:23;;;;;;;;;10.67;9.67;;;;;20.65;80.54;100643.84;5060211;28;45269;-77
2021/09/15 07:30:49;;;;;;;;;9.00;7.67;;;;;20.66;81.18;100642.00;5074626;28;45371;-77
2021/09/15 07:33:15;;;;;;;;;11.00;10.00;;;;;20.66;80.97;100640.13;5067548;27;45202;-77
2021/09/15 07:35:42;;;;;;;;;9.00;9.00;;;;;20.66;80.98;100645.53;5061894;28;45229;-77
2021/09/15 07:38:07;;;;;;;;;10.67;9.67;;;;;20.69;80.99;100650.41;5061713;28;45619;-77
2021/09/15 07:40:32;;;;;;;;;7.33;7.33;;;;;20.68;80.96;100639.84;5062044;28;45390;-77
2021/09/15 07:42:59;;;;;;;;;12.00;12.00;;;;;20.69;81.01;100652.31;5061931;28;45516;-77
2021/09/15 07:45:26;;;;;;;;;10.00;9.67;;;;;20.67;80.86;100660.66;5061181;28;45388;-78
2021/09/15 07:47:51;;;;;;;;;11.00;10.33;;;;;20.64;81.16;100647.63;5061736;28;45265;-77
2021/09/15 07:50:16;;;;;;;;;12.33;11.67;;;;;20.63;81.22;100647.88;5061667;28;45306;-77
2021/09/15 07:52:42;;;;;;;;;9.67;9.67;;;;;20.60;81.25;100649.19;5062048;28;45203;-80
2021/09/15 07:55:07;;;;;;;;;13.67;12.67;;;;;20.62;81.48;100648.94;5061822;28;45609;-79
2021/09/15 07:57:33;;;;;;;;;14.00;14.00;;;;;20.60;80.91;100653.75;5062631;28;45295;-80
2021/09/15 07:59:59;;;;;;;;;11.00;10.00;;;;;20.58;81.40;100658.56;5045715;28;45250;-80
2021/09/15 08:02:25;;;;;;;;;12.67;11.33;;;;;20.56;80.90;100656.94;5063640;28;45339;-79
2021/09/15 08:04:50;;;;;;;;;13.67;11.67;;;;;20.51;80.69;100654.16;5062815;28;45266;-80
2021/09/15 08:07:16;;;;;;;;;13.00;12.33;;;;;20.51;81.10;100661.44;5060698;28;46628;-76
2021/09/15 08:09:41;;;;;;;;;15.33;14.00;;;;;20.50;80.73;100665.22;5061701;28;45244;-78
2021/09/15 08:12:07;;;;;;;;;13.67;11.33;;;;;20.45;81.23;100660.53;5061419;28;45908;-79
2021/09/15 08:14:32;;;;;;;;;11.00;11.00;;;;;20.47;80.81;100665.69;5061941;28;46256;-78
2021/09/15 08:16:58;;;;;;;;;12.00;10.67;;;;;20.41;81.16;100662.09;5061288;28;45472;-80
2021/09/15 08:19:26;;;;;;;;;14.33;12.67;;;;;20.43;80.90;100668.03;5062959;28;45786;-82
2021/09/15 08:21:51;;;;;;;;;14.00;13.00;;;;;20.37;81.22;100663.63;5067940;28;45383;-81
2021/09/15 08:24:17;;;;;;;;;13.67;13.33;;;;;20.37;81.31;100671.72;5059518;28;45489;-82
2021/09/15 08:26:43;;;;;;;;;12.00;12.00;;;;;20.39;81.43;100675.00;5059070;28;47824;-82
2021/09/15 08:29:11;;;;;;;;;18.00;15.00;;;;;20.39;81.98;100673.13;5061109;28;45229;-83
2021/09/15 08:31:37;;;;;;;;;19.00;15.00;;;;;20.38;82.38;100674.16;5077756;28;45404;-84
2021/09/15 08:34:03;;;;;;;;;14.67;13.00;;;;;20.30;82.43;100669.19;5058885;28;45404;-85
2021/09/15 08:36:28;;;;;;;;;13.67;12.33;;;;;20.25;82.11;100675.28;5058978;28;46592;-82
2021/09/15 08:38:54;;;;;;;;;11.67;11.67;;;;;20.24;82.65;100681.75;5059428;28;45496;-82
2021/09/15 08:41:20;;;;;;;;;10.00;10.00;;;;;20.21;82.43;100676.84;5059225;28;45264;-80
2021/09/15 08:43:45;;;;;;;;;12.00;12.00;;;;;20.24;81.89;100689.84;5059672;28;45669;-80
2021/09/15 08:46:14;;;;;;;;;10.67;9.00;;;;;20.24;82.60;100687.16;5059372;28;47691;-81
2021/09/15 08:48:41;;;;;;;;;11.00;10.00;;;;;20.27;82.52;100677.75;5059508;28;45197;-81
2021/09/15 08:51:16;;;;;;;;;8.00;6.67;;;;;20.26;82.10;100668.81;5059344;28;45412;-81
2021/09/15 08:53:45;;;;;;;;;8.00;8.00;;;;;20.30;82.19;100675.38;5059417;28;45970;-81
2021/09/15 08:56:11;;;;;;;;;6.33;6.00;;;;;20.35;82.49;100679.25;5059209;28;47358;-82
2021/09/15 08:58:37;;;;;;;;;4.50;4.50;;;;;20.38;82.06;100681.47;5059480;28;45239;-82
2021/09/15 09:01:18;;;;;;;;;5.25;5.25;;;;;20.44;82.16;100686.69;5059997;28;45320;-81
2021/09/15 09:03:45;;;;;;;;;4.00;4.00;;;;;20.43;82.78;100678.84;5062445;28;45351;-80
2021/09/15 09:06:12;;;;;;;;;7.25;4.50;;;;;20.43;82.12;100682.38;5059467;28;46761;-81
2021/09/15 09:08:39;;;;;;;;;5.33;5.33;;;;;20.54;82.32;100688.78;5061021;28;45260;-81
2021/09/15 09:11:05;;;;;;;;;5.33;5.33;;;;;20.60;81.98;100688.84;5060613;28;45498;-81
2021/09/15 09:13:33;;;;;;;;;4.00;4.00;;;;;20.67;82.15;100695.75;5060685;28;45250;-82
2021/09/15 09:15:58;;;;;;;;;5.00;4.00;;;;;20.73;81.97;100698.53;5066523;28;45965;-82
2021/09/15 09:18:23;;;;;;;;;4.00;4.00;;;;;20.78;82.30;100699.44;5075885;28;45364;-82
2021/09/15 09:20:51;;;;;;;;;5.00;5.00;;;;;20.77;81.89;100689.69;5064723;28;45513;-83
2021/09/15 09:23:21;;;;;;;;;3.00;3.00;;;;;20.77;82.33;100700.50;5061315;28;45291;-83
2021/09/15 09:25:58;;;;;;;;;6.67;6.33;;;;;20.81;81.64;100696.22;5060579;28;45566;-83
2021/09/15 09:28:36;;;;;;;;;3.67;3.67;;;;;20.86;81.78;100700.09;5065796;28;45314;-81
2021/09/15 09:31:04;;;;;;;;;5.00;4.33;;;;;20.94;82.05;100691.63;5069509;28;45322;-81
2021/09/15 09:33:29;;;;;;;;;4.75;4.00;;;;;21.02;81.68;100699.31;5061505;28;46278;-84
2021/09/15 09:36:02;;;;;;;;;7.33;7.00;;;;;21.11;81.98;100693.50;5059646;28;48205;-80
2021/09/15 09:38:30;;;;;;;;;6.00;6.00;;;;;21.21;81.35;100698.22;5058187;28;45442;-79
2021/09/15 09:40:59;;;;;;;;;5.33;5.33;;;;;21.30;81.26;100707.56;5059950;28;45247;-79
2021/09/15 09:43:25;;;;;;;;;5.33;5.33;;;;;21.39;81.82;100708.78;5058238;28;46275;-79
2021/09/15 09:45:59;;;;;;;;;7.33;7.00;;;;;21.40;81.48;100694.19;5060245;28;46010;-77
2021/09/15 09:48:38;;;;;;;;;5.00;5.00;;;;;21.45;81.66;100696.16;5059722;28;45424;-79
2021/09/15 09:51:30;;;;;;;;;5.00;4.00;;;;;21.57;80.90;100709.56;5059654;28;45298;-78
2021/09/15 09:57:14;;;;;;;;;4.00;4.00;;;;;21.51;80.42;100678.94;5058805;27;45633;-77
2021/09/15 09:59:52;;;;;;;;;3.00;3.00;;;;;21.57;80.28;100674.41;5057301;28;45932;-78
2021/09/15 10:02:33;;;;;;;;;5.33;5.33;;;;;21.62;80.57;100682.63;5058614;28;45465;-78
2021/09/15 10:05:02;;;;;;;;;8.00;8.00;;;;;21.66;80.28;100681.03;5060244;28;45255;-84
2021/09/15 10:07:28;;;;;;;;;6.00;6.00;;;;;21.71;80.35;100683.00;5060708;28;46349;-78
2021/09/15 10:09:57;;;;;;;;;5.00;5.00;;;;;21.84;80.58;100700.75;5059410;28;45401;-79
2021/09/15 10:12:24;;;;;;;;;5.67;5.67;;;;;21.91;80.24;100697.88;5059543;28;45510;-78
2021/09/15 10:14:50;;;;;;;;;7.33;7.00;;;;;21.94;80.46;100694.66;5059837;28;45323;-76
2021/09/15 10:17:25;;;;;;;;;7.00;7.00;;;;;22.01;80.10;100706.13;5059744;28;45216;-77
2021/09/15 10:19:53;;;;;;;;;7.67;7.33;;;;;22.03;80.15;100708.56;5058571;28;45362;-80
2021/09/15 10:22:41;;;;;;;;;8.00;7.33;;;;;22.07;80.18;100701.56;5059224;28;45386;-79
2021/09/15 10:25:08;;;;;;;;;7.33;7.33;;;;;22.13;79.79;100699.75;5059648;28;45497;-79
2021/09/15 10:28:04;;;;;;;;;8.00;8.00;;;;;22.22;79.41;100705.53;5060151;28;45292;-80
2021/09/15 10:30:50;;;;;;;;;9.67;9.67;;;;;22.22;79.31;100694.69;5060743;28;45506;-79
2021/09/15 10:33:38;;;;;;;;;9.33;9.33;;;;;22.26;79.78;100696.63;5059186;28;45601;-79
2021/09/15 10:36:33;;;;;;;;;10.00;10.00;;;;;22.25;79.70;100695.00;5068329;28;45497;-77
2021/09/15 10:39:03;;;;;;;;;11.00;11.00;;;;;22.27;79.67;100692.06;5056182;28;45648;-77
2021/09/15 10:41:34;;;;;;;;;8.67;8.67;;;;;22.36;79.89;100690.53;5062901;28;45376;-77
2021/09/15 10:44:07;;;;;;;;;8.00;8.00;;;;;22.44;79.35;100695.47;5062898;28;45292;-77
2021/09/15 10:46:32;;;;;;;;;10.00;10.00;;;;;22.52;79.60;100691.50;5062954;28;45493;-79
2021/09/15 10:49:22;;;;;;;;;11.00;10.33;;;;;22.61;79.24;100693.75;5061288;28;47129;-79
2021/09/15 10:52:06;;;;;;;;;10.00;10.00;;;;;22.62;79.40;100700.81;5062613;28;45243;-77
2021/09/15 10:54:54;;;;;;;;;9.00;9.00;;;;;22.53;79.11;100686.88;5061938;28;45395;-77
2021/09/15 10:57:30;;;;;;;;;8.00;8.00;;;;;22.55;78.85;100693.69;5062883;28;45465;-78
2021/09/15 10:59:57;;;;;;;;;11.00;10.75;;;;;22.49;78.76;100700.13;5062753;28;45356;-78
2021/09/15 11:02:37;;;;;;;;;8.00;8.00;;;;;22.41;78.80;100693.28;5063129;28;45417;-76
2021/09/15 11:05:24;;;;;;;;;14.67;13.67;;;;;22.37;78.60;100704.88;5062962;28;45220;-77
2021/09/15 11:07:50;;;;;;;;;13.00;12.00;;;;;22.33;78.49;100697.25;5062266;28;46565;-80
2021/09/15 11:10:36;;;;;;;;;14.00;14.00;;;;;22.29;79.63;100698.00;5061317;28;46504;-77
2021/09/15 11:13:24;;;;;;;;;15.00;14.67;;;;;22.27;79.45;100706.38;5057816;28;45313;-79
2021/09/15 11:15:53;;;;;;;;;17.00;17.00;;;;;22.23;79.40;100707.19;5061814;28;45399;-78
2021/09/15 11:18:23;;;;;;;;;20.67;20.67;;;;;22.22;79.62;100713.63;5056928;28;45298;-79
2021/09/15 11:21:03;;;;;;;;;13.00;13.00;;;;;22.08;79.17;100708.63;5060475;28;45546;-80
2021/09/15 11:23:29;;;;;;;;;17.00;17.00;;;;;22.04;79.39;100711.03;5057576;28;45272;-81
2021/09/15 11:25:56;;;;;;;;;17.67;17.67;;;;;21.92;79.79;100719.28;5061821;28;44621;-83
2021/09/15 11:28:25;;;;;;;;;17.33;15.67;;;;;21.79;79.52;100715.03;5061225;28;45498;-86
2021/09/15 11:30:50;;;;;;;;;15.00;12.67;;;;;21.64;80.57;100722.91;5059736;28;47123;-86